Time;durP1;ratioP1;P1;durP2;ratioP2;P2;SDS_P1;SDS_P2;PMS_P1;PMS_P2;Temp;Humidity;BMP_temperature;BMP_pressure;BME280_temperature;BME280_humidity;BME280_pressure;Samples;Min_cycle;Max_cycle;Signal;HPM_P1;HPM_P2
2022/01/05 00:02:23;;;;;;;;;;;;;;;5.87;66.98;99692.59;5143809;27;30283;-79
2022/01/05 00:04:48;;;;;;;;;;;;;;;5.83;66.86;99692.63;5141718;27;26824;-80
2022/01/05 00:07:14;;;;;;;;;;;;;;;5.79;66.55;99696.16;5139929;27;51702;-80
2022/01/05 00:09:39;;;;;;;;;;;;;;;5.76;67.09;99696.22;5142073;27;26881;-79
2022/01/05 00:12:04;;;;;;;;;;;;;;;5.72;66.61;99686.94;5144346;27;26986;-79
2022/01/05 00:14:29;;;;;;;;;;;;;;;5.70;66.32;99675.84;5144122;27;26814;-80
2022/01/05 00:16:55;;;;;;;;;;;;;;;5.66;66.31;99669.13;5140104;27;48337;-80
2022/01/05 00:19:20;;;;;;;;;;;;;;;5.64;66.45;99670.88;5152402;27;48622;-80
2022/01/05 00:21:45;;;;;;;;;;;;;;;5.59;66.97;99677.81;5145367;27;26957;-80
2022/01/05 00:24:10;;;;;;;;;;;;;;;5.53;67.88;99683.09;5142582;27;27025;-79
2022/01/05 00:26:36;;;;;;;;;;;;;;;5.52;67.26;99686.53;5144781;27;26886;-79
2022/01/05 00:29:01;;;;;;;;;;;;;;;5.49;66.33;99686.59;5144789;27;27013;-80
2022/01/05 00:31:27;;;;;;;;;;;;;;;5.32;66.33;99658.81;5143636;27;26806;-79
2022/01/05 00:33:52;;;;;;;;;;;;;;;5.42;67.75;99684.22;5143725;27;39192;-79
2022/01/05 00:36:18;;;;;;;;;;;;;;;5.39;66.77;99680.00;5143777;27;27060;-79
2022/01/05 00:38:43;;;;;;;;;;;;;;;5.38;67.40;99683.44;5144355;27;45349;-79
2022/01/05 00:41:08;;;;;;;;;;;;;;;5.34;67.46;99684.38;5143103;27;27841;-80
2022/01/05 00:43:33;;;;;;;;;;;;;;;5.31;66.99;99676.78;5144046;27;26802;-79
2022/01/05 00:45:59;;;;;;;;;;;;;;;5.28;67.59;99681.97;5140520;27;26873;-80
2022/01/05 00:48:24;;;;;;;;;;;;;;;5.25;67.89;99687.13;5141274;27;26862;-80
2022/01/05 00:50:49;;;;;;;;;;;;;;;5.23;67.69;99681.22;5140137;27;51007;-80
2022/01/05 00:53:14;;;;;;;;;;;;;;;5.21;67.20;99680.41;5140726;27;31250;-80
2022/01/05 00:55:39;;;;;;;;;;;;;;;5.19;67.76;99682.16;5139294;27;55984;-80
2022/01/05 00:58:05;;;;;;;;;;;;;;;5.18;67.63;99680.44;5139855;27;54095;-79
2022/01/05 01:00:30;;;;;;;;;;;;;;;5.17;67.62;99683.91;5140395;27;29853;-78
2022/01/05 01:02:55;;;;;;;;;;;;;;;5.15;67.35;99680.53;5140550;27;26714;-79
2022/01/05 01:05:20;;;;;;;;;;;;;;;5.15;67.49;99685.66;5139802;27;27032;-78
2022/01/05 01:07:46;;;;;;;;;;;;;;;5.14;67.24;99683.94;5140035;27;26733;-78
2022/01/05 01:10:12;;;;;;;;;;;;;;;5.13;67.67;99692.53;5146214;27;26866;-78
2022/01/05 01:12:37;;;;;;;;;;;;;;;5.12;67.36;99690.84;5143537;27;26978;-78
2022/01/05 01:15:04;;;;;;;;;;;;;;;5.11;67.90;99694.25;5122063;27;46904;-79
2022/01/05 01:17:29;;;;;;;;;;;;;;;5.08;67.78;99689.22;5140281;27;26819;-78
2022/01/05 01:19:54;;;;;;;;;;;;;;;5.06;67.63;99696.09;5140890;27;52462;-78
2022/01/05 01:22:19;;;;;;;;;;;;;;;5.02;67.48;99700.44;5142077;27;48784;-78
2022/01/05 01:24:45;;;;;;;;;;;;;;;4.99;67.40;99699.63;5143316;27;27725;-77
2022/01/05 01:27:10;;;;;;;;;;;;;;;4.97;68.16;99706.50;5123496;27;52166;-78
2022/01/05 01:29:35;;;;;;;;;;;;;;;4.94;67.56;99704.00;5141990;27;49367;-79
2022/01/05 01:32:01;;;;;;;;;;;;;;;4.93;68.26;99699.75;5149655;27;38979;-80
2022/01/05 01:34:26;;;;;;;;;;;;;;;4.91;68.09;99702.38;5141762;27;26936;-78
2022/01/05 01:36:51;;;;;;;;;;;;;;;4.92;67.95;99713.41;5142779;27;26995;-79
2022/01/05 01:39:16;;;;;;;;;;;;;;;4.93;67.67;99715.09;5140827;27;48747;-78
2022/01/05 01:41:41;;;;;;;;;;;;;;;4.92;67.77;99703.19;5138862;27;50764;-80
2022/01/05 01:44:07;;;;;;;;;;;;;;;4.88;68.24;99703.25;5138951;27;45391;-80
2022/01/05 01:46:32;;;;;;;;;;;;;;;4.88;67.74;99702.41;5121080;27;26983;-80
2022/01/05 01:48:57;;;;;;;;;;;;;;;4.86;67.79;99694.78;5139716;27;26945;-79
2022/01/05 01:51:22;;;;;;;;;;;;;;;4.83;68.05;99689.72;5142314;27;26964;-79
2022/01/05 01:53:48;;;;;;;;;;;;;;;4.82;67.82;99693.13;5142141;27;26858;-79
2022/01/05 01:56:14;;;;;;;;;;;;;;;4.81;68.35;99698.28;5142594;27;26816;-79
2022/01/05 01:58:39;;;;;;;;;;;;;;;4.80;67.41;99700.00;5154903;27;26587;-77
2022/01/05 02:01:04;;;;;;;;;;;;;;;4.81;67.56;99700.84;5142734;27;26871;-77
2022/01/05 02:03:30;;;;;;;;;;;;;;;4.82;67.62;99702.53;5144218;27;26929;-77
2022/01/05 02:05:56;;;;;;;;;;;;;;;4.80;67.47;99700.00;5151999;27;26717;-78
2022/01/05 02:08:21;;;;;;;;;;;;;;;4.77;67.35;99694.94;5143451;27;26772;-78
2022/01/05 02:10:46;;;;;;;;;;;;;;;4.75;67.18;99686.47;5144060;27;26701;-77
2022/01/05 02:13:12;;;;;;;;;;;;;;;4.73;67.54;99695.88;5143894;27;26853;-80
2022/01/05 02:15:39;;;;;;;;;;;;;;;4.70;68.26;99693.38;5142803;27;34973;-78
2022/01/05 02:20:30;;;;;;;;;;;;;;;4.65;67.85;99684.94;5139407;27;26886;-78
2022/01/05 02:22:56;;;;;;;;;;;;;;;4.65;67.07;99700.28;5142841;27;27568;-77
2022/01/05 02:25:21;;;;;;;;;;;;;;;4.62;68.16;99695.22;5142434;27;26807;-78
2022/01/05 02:27:47;;;;;;;;;;;;;;;4.61;68.25;99698.66;5142257;27;26885;-78
2022/01/05 02:30:14;;;;;;;;;;;;;;;4.59;67.23;99700.41;5142234;27;26907;-78
2022/01/05 02:32:39;;;;;;;;;;;;;;;4.58;67.81;99697.88;5141167;27;28366;-78
2022/01/05 02:35:05;;;;;;;;;;;;;;;4.53;67.29;99692.84;5142513;27;26949;-78
2022/01/05 02:37:30;;;;;;;;;;;;;;;4.49;67.89;99698.91;5143137;27;27780;-77
2022/01/05 02:39:56;;;;;;;;;;;;;;;4.54;67.28;99702.19;5140458;27;26775;-79
2022/01/05 02:42:27;;;;;;;;;;;;;;;4.56;67.63;99704.72;5138670;27;27540;-78
2022/01/05 02:44:53;;;;;;;;;;;;;;;4.54;67.57;99694.53;5138612;27;26970;-79
2022/01/05 02:47:18;;;;;;;;;;;;;;;4.54;68.13;99702.19;5138410;27;27699;-78
2022/01/05 02:49:43;;;;;;;;;;;;;;;4.54;67.83;99696.22;5137918;27;52899;-78
2022/01/05 02:52:09;;;;;;;;;;;;;;;4.50;67.12;99705.66;5137412;27;56347;-79
2022/01/05 02:54:34;;;;;;;;;;;;;;;4.50;67.66;99705.66;5137970;27;55121;-79
2022/01/05 02:56:59;;;;;;;;;;;;;;;4.48;67.73;99709.97;5141864;27;26991;-78
2022/01/05 02:59:24;;;;;;;;;;;;;;;4.44;67.19;99705.78;5142504;27;54863;-78
2022/01/05 03:01:49;;;;;;;;;;;;;;;4.41;67.60;99700.75;5144229;27;47307;-78
2022/01/05 03:04:14;;;;;;;;;;;;;;;4.38;67.57;99701.66;5144251;27;26945;-78
2022/01/05 03:06:40;;;;;;;;;;;;;;;4.37;67.72;99709.34;5141003;27;56457;-78
2022/01/05 03:09:05;;;;;;;;;;;;;;;4.35;67.67;99703.38;5143277;27;48660;-78
2022/01/05 03:11:30;;;;;;;;;;;;;;;4.34;67.86;99709.41;5144698;27;56080;-78
2022/01/05 03:13:55;;;;;;;;;;;;;;;4.32;67.88;99711.13;5144582;27;54534;-78
2022/01/05 03:16:20;;;;;;;;;;;;;;;4.30;68.26;99707.75;5143561;27;57396;-77
2022/01/05 03:18:45;;;;;;;;;;;;;;;4.26;67.36;99708.69;5144250;27;54135;-78
2022/01/05 03:21:10;;;;;;;;;;;;;;;4.24;68.04;99712.94;5144425;27;56618;-78
2022/01/05 03:23:36;;;;;;;;;;;;;;;4.22;67.54;99712.16;5144110;27;43314;-78
2022/01/05 03:26:01;;;;;;;;;;;;;;;4.21;68.21;99713.00;5144140;27;48673;-78
2022/01/05 03:28:26;;;;;;;;;;;;;;;4.21;68.22;99707.91;5157075;27;27057;-78
2022/01/05 03:30:51;;;;;;;;;;;;;;;4.18;68.14;99713.06;5148816;27;56371;-78
2022/01/05 03:33:20;;;;;;;;;;;;;;;4.18;67.88;99707.97;5145528;27;55401;-78
2022/01/05 03:35:46;;;;;;;;;;;;;;;4.19;68.09;99707.94;5145459;27;27532;-78
2022/01/05 03:38:15;;;;;;;;;;;;;;;4.23;68.05;99711.28;5145251;27;26772;-78
2022/01/05 03:40:41;;;;;;;;;;;;;;;4.26;67.89;99716.34;5145469;27;27099;-78
2022/01/05 03:43:07;;;;;;;;;;;;;;;4.29;67.40;99721.41;5145042;27;26760;-78
2022/01/05 03:45:32;;;;;;;;;;;;;;;4.32;67.71;99716.22;5145247;27;26819;-78
2022/01/05 03:47:57;;;;;;;;;;;;;;;4.33;67.96;99717.91;5147105;27;26821;-78
2022/01/05 03:50:22;;;;;;;;;;;;;;;4.36;67.45;99722.97;5147486;27;26726;-78
2022/01/05 03:52:48;;;;;;;;;;;;;;;4.38;67.81;99716.13;5145463;27;26825;-78
2022/01/05 03:55:13;;;;;;;;;;;;;;;4.38;67.53;99716.13;5141202;27;57493;-79
2022/01/05 03:57:38;;;;;;;;;;;;;;;4.37;67.78;99719.56;5140446;27;41093;-78
2022/01/05 04:00:04;;;;;;;;;;;;;;;4.36;67.32;99722.97;5141077;27;26760;-78
2022/01/05 04:02:30;;;;;;;;;;;;;;;4.34;67.39;99733.25;5140954;27;26856;-79
2022/01/05 04:04:55;;;;;;;;;;;;;;;4.39;67.58;99733.13;5140181;27;26938;-78
2022/01/05 04:07:20;;;;;;;;;;;;;;;4.41;68.10;99736.53;5139551;27;54227;-78
2022/01/05 04:09:45;;;;;;;;;;;;;;;4.49;68.24;99734.69;5140040;27;52968;-79
2022/01/05 04:12:11;;;;;;;;;;;;;;;4.56;68.22;99736.25;5139874;27;40693;-78
2022/01/05 04:14:36;;;;;;;;;;;;;;;4.64;68.50;99739.53;5140880;27;27123;-78
2022/01/05 04:17:02;;;;;;;;;;;;;;;4.68;67.61;99738.59;5140183;27;26854;-78
2022/01/05 04:19:27;;;;;;;;;;;;;;;4.69;67.88;99737.72;5140704;27;26946;-78
2022/01/05 04:21:52;;;;;;;;;;;;;;;4.69;67.34;99735.16;5139276;27;54335;-78
2022/01/05 04:24:17;;;;;;;;;;;;;;;4.67;66.92;99736.91;5140239;27;33805;-79
2022/01/05 04:26:44;;;;;;;;;;;;;;;4.68;67.62;99736.06;5140579;27;26816;-78
2022/01/05 04:29:10;;;;;;;;;;;;;;;4.68;67.56;99738.59;5140554;27;26999;-80
2022/01/05 04:31:35;;;;;;;;;;;;;;;4.66;66.53;99740.34;5140660;27;26897;-80
2022/01/05 04:34:01;;;;;;;;;;;;;;;4.66;66.86;99731.81;5139839;27;43121;-80
2022/01/05 04:36:26;;;;;;;;;;;;;;;4.64;66.39;99731.84;5140378;27;26973;-80
2022/01/05 04:38:52;;;;;;;;;;;;;;;4.64;67.48;99739.53;5140289;27;26851;-80
2022/01/05 04:41:17;;;;;;;;;;;;;;;4.66;66.48;99742.88;5139875;27;26809;-78
2022/01/05 04:43:42;;;;;;;;;;;;;;;4.67;67.65;99738.63;5139985;27;32794;-80
2022/01/05 04:46:08;;;;;;;;;;;;;;;4.72;66.52;99742.75;5140804;27;27010;-80
2022/01/05 04:48:33;;;;;;;;;;;;;;;4.78;66.76;99741.81;5140586;27;34590;-80
2022/01/05 04:50:58;;;;;;;;;;;;;;;4.84;66.69;99736.56;5140161;27;26906;-78
2022/01/05 04:53:23;;;;;;;;;;;;;;;4.92;66.62;99739.00;5139665;27;35024;-80
2022/01/05 04:55:48;;;;;;;;;;;;;;;4.80;66.98;99717.03;5140330;27;26883;-80
2022/01/05 04:58:14;;;;;;;;;;;;;;;5.01;65.70;99743.94;5141435;27;51165;-80
2022/01/05 05:00:39;;;;;;;;;;;;;;;5.03;66.00;99744.75;5153515;27;26797;-80
2022/01/05 05:03:04;;;;;;;;;;;;;;;5.05;66.81;99745.56;5141209;27;26745;-79
2022/01/05 05:05:30;;;;;;;;;;;;;;;5.03;65.58;99742.19;5143419;27;26839;-79
2022/01/05 05:07:55;;;;;;;;;;;;;;;5.03;66.74;99747.31;5143911;27;26832;-79
2022/01/05 05:10:20;;;;;;;;;;;;;;;5.03;66.75;99747.31;5143075;27;26724;-79
2022/01/05 05:12:45;;;;;;;;;;;;;;;5.02;65.50;99740.53;5145287;27;26822;-80
2022/01/05 05:15:10;;;;;;;;;;;;;;;5.01;66.00;99749.91;5151452;27;26565;-80
2022/01/05 05:17:36;;;;;;;;;;;;;;;4.99;66.23;99749.06;5147437;27;44601;-79
2022/01/05 05:20:01;;;;;;;;;;;;;;;4.94;65.06;99750.06;5145730;27;27018;-80
2022/01/05 05:22:26;;;;;;;;;;;;;;;4.92;65.26;99750.06;5145407;27;26777;-80
2022/01/05 05:24:52;;;;;;;;;;;;;;;4.90;65.49;99751.84;5143565;27;54993;-77
2022/01/05 05:27:17;;;;;;;;;;;;;;;4.86;65.89;99743.38;5143421;27;27741;-79
2022/01/05 05:29:44;;;;;;;;;;;;;;;4.90;65.65;99750.97;5143807;27;43675;-79
2022/01/05 05:32:09;;;;;;;;;;;;;;;4.91;65.45;99752.69;5144401;27;26790;-80
2022/01/05 05:34:34;;;;;;;;;;;;;;;4.94;65.94;99748.34;5143681;27;35713;-79
2022/01/05 05:37:00;;;;;;;;;;;;;;;4.99;65.86;99745.66;5143957;27;27863;-79
2022/01/05 05:39:25;;;;;;;;;;;;;;;5.02;65.82;99746.50;5143047;27;51848;-79
2022/01/05 05:41:50;;;;;;;;;;;;;;;5.05;66.16;99750.69;5143624;27;27672;-79
2022/01/05 05:44:15;;;;;;;;;;;;;;;5.09;65.92;99754.88;5143446;27;26930;-79
2022/01/05 05:46:41;;;;;;;;;;;;;;;5.13;66.63;99753.94;5124023;27;27806;-80
2022/01/05 05:49:06;;;;;;;;;;;;;;;5.15;66.31;99747.91;5143449;27;27052;-79
2022/01/05 05:51:31;;;;;;;;;;;;;;;5.19;66.47;99751.25;5142630;27;49146;-78
2022/01/05 05:53:56;;;;;;;;;;;;;;;5.19;66.36;99752.09;5141792;27;55054;-80
2022/01/05 05:56:21;;;;;;;;;;;;;;;5.22;65.44;99739.22;5153483;27;26741;-80
2022/01/05 05:58:47;;;;;;;;;;;;;;;5.28;66.21;99743.41;5145182;27;50547;-79
2022/01/05 06:01:12;;;;;;;;;;;;;;;5.23;65.64;99740.09;5143052;27;56418;-79
2022/01/05 06:03:37;;;;;;;;;;;;;;;5.23;65.65;99738.38;5143105;27;54135;-77
2022/01/05 06:06:02;;;;;;;;;;;;;;;5.22;65.80;99738.38;5143649;27;26642;-79
2022/01/05 06:08:28;;;;;;;;;;;;;;;5.19;66.29;99748.69;5143252;27;32344;-79
2022/01/05 06:10:53;;;;;;;;;;;;;;;5.14;66.32;99741.09;5142463;27;26716;-77
2022/01/05 06:13:18;;;;;;;;;;;;;;;5.11;65.98;99740.31;5143452;27;26940;-78
2022/01/05 06:15:43;;;;;;;;;;;;;;;5.12;66.22;99742.00;5141888;27;55984;-79
2022/01/05 06:18:08;;;;;;;;;;;;;;;5.12;66.08;99747.13;5142344;27;26866;-80
2022/01/05 06:20:34;;;;;;;;;;;;;;;5.16;65.90;99748.75;5141291;27;56975;-80
2022/01/05 06:22:59;;;;;;;;;;;;;;;5.20;66.90;99758.06;5142573;27;27015;-79
2022/01/05 06:25:24;;;;;;;;;;;;;;;5.22;65.97;99753.75;5141976;27;26956;-78
2022/01/05 06:27:49;;;;;;;;;;;;;;;5.26;66.29;99756.22;5142206;27;26447;-79
2022/01/05 06:30:14;;;;;;;;;;;;;;;5.26;66.54;99760.50;5144415;27;48708;-79
2022/01/05 06:32:44;;;;;;;;;;;;;;;5.24;65.79;99746.91;5144950;27;55187;-79
2022/01/05 06:35:09;;;;;;;;;;;;;;;5.23;65.81;99745.19;5145422;27;27012;-78
2022/01/05 06:37:34;;;;;;;;;;;;;;;5.24;66.06;99741.78;5144729;27;26997;-78
2022/01/05 06:39:59;;;;;;;;;;;;;;;5.24;66.34;99741.78;5145246;27;27024;-79
2022/01/05 06:42:24;;;;;;;;;;;;;;;5.23;66.55;99734.97;5143692;27;52629;-78
2022/01/05 06:44:50;;;;;;;;;;;;;;;5.22;66.24;99733.28;5144466;27;26842;-78
2022/01/05 06:47:15;;;;;;;;;;;;;;;5.19;66.68;99738.47;5143927;27;27026;-78
2022/01/05 06:49:40;;;;;;;;;;;;;;;5.20;66.35;99740.16;5144347;27;26787;-78
2022/01/05 06:52:06;;;;;;;;;;;;;;;5.22;66.61;99748.63;5144114;27;26791;-78
2022/01/05 06:54:31;;;;;;;;;;;;;;;5.27;66.82;99757.06;5143361;27;26770;-78
2022/01/05 06:56:56;;;;;;;;;;;;;;;5.30;67.03;99762.13;5142995;27;26963;-78
2022/01/05 06:59:22;;;;;;;;;;;;;;;5.37;67.45;99753.44;5142358;27;26869;-78
2022/01/05 07:01:47;;;;;;;;;;;;;;;5.43;67.19;99748.19;5142035;27;44858;-78
2022/01/05 07:04:12;;;;;;;;;;;;;;;5.46;66.94;99763.50;5142697;27;26916;-78
2022/01/05 07:06:37;;;;;;;;;;;;;;;5.55;66.83;99757.34;5141435;27;53717;-78
2022/01/05 07:09:02;;;;;;;;;;;;;;;5.58;67.28;99758.13;5141240;27;56014;-78
2022/01/05 07:11:28;;;;;;;;;;;;;;;5.65;66.59;99764.78;5143094;27;26896;-78
2022/01/05 07:13:53;;;;;;;;;;;;;;;5.70;66.42;99778.31;5143362;27;27783;-78
2022/01/05 07:16:18;;;;;;;;;;;;;;;5.74;67.40;99774.81;5142649;27;30550;-77
2022/01/05 07:18:43;;;;;;;;;;;;;;;5.77;66.45;99774.75;5142586;27;27119;-78
2022/01/05 07:21:09;;;;;;;;;;;;;;;5.64;66.40;99757.13;5142293;27;32688;-77
2022/01/05 07:23:34;;;;;;;;;;;;;;;5.79;66.83;99778.13;5139564;27;56404;-77
2022/01/05 07:25:59;;;;;;;;;;;;;;;5.82;66.86;99783.19;5140969;27;26990;-78
2022/01/05 07:28:24;;;;;;;;;;;;;;;5.83;67.38;99777.19;5140284;27;55510;-77
2022/01/05 07:30:49;;;;;;;;;;;;;;;5.85;67.32;99777.97;5139380;27;34393;-77
2022/01/05 07:33:15;;;;;;;;;;;;;;;5.84;66.94;99778.88;5139036;27;26942;-78
2022/01/05 07:35:40;;;;;;;;;;;;;;;5.87;67.75;99774.59;5138560;27;26882;-78
2022/01/05 07:38:06;;;;;;;;;;;;;;;5.85;67.74;99770.31;5138482;27;26958;-77
2022/01/05 07:40:31;;;;;;;;;;;;;;;5.82;67.61;99767.81;5138787;27;26931;-77
2022/01/05 07:42:57;;;;;;;;;;;;;;;5.83;67.46;99758.41;5141312;27;45433;-77
2022/01/05 07:45:22;;;;;;;;;;;;;;;5.84;68.02;99758.38;5142241;27;26868;-80
2022/01/05 07:47:47;;;;;;;;;;;;;;;5.85;68.31;99752.38;5143780;27;26835;-80
2022/01/05 07:50:15;;;;;;;;;;;;;;;5.85;67.99;99757.50;5142599;27;42809;-80
2022/01/05 07:52:41;;;;;;;;;;;;;;;5.83;68.78;99764.38;5146612;27;26958;-80
2022/01/05 07:55:07;;;;;;;;;;;;;;;5.85;68.35;99767.75;5146932;27;26301;-80
2022/01/05 07:57:33;;;;;;;;;;;;;;;5.89;68.22;99760.00;5145337;27;26859;-80
2022/01/05 07:59:58;;;;;;;;;;;;;;;5.87;68.58;99754.09;5144721;27;26803;-79
2022/01/05 08:02:23;;;;;;;;;;;;;;;5.89;68.04;99752.31;5143114;27;56454;-80
2022/01/05 08:04:49;;;;;;;;;;;;;;;5.88;68.13;99748.94;5123263;27;26873;-79
2022/01/05 08:07:14;;;;;;;;;;;;;;;5.85;68.14;99757.50;5141487;27;26881;-80
2022/01/05 08:09:39;;;;;;;;;;;;;;;5.81;68.56;99755.88;5141215;27;27248;-79
2022/01/05 08:12:05;;;;;;;;;;;;;;;5.79;69.31;99759.34;5141780;27;29741;-80
2022/01/05 08:14:30;;;;;;;;;;;;;;;5.80;69.47;99759.34;5142935;27;26870;-79
2022/01/05 08:16:55;;;;;;;;;;;;;;;5.82;69.29;99757.56;5140829;27;57442;-80
2022/01/05 08:19:20;;;;;;;;;;;;;;;5.85;69.30;99754.06;5141985;27;27314;-78
2022/01/05 08:21:45;;;;;;;;;;;;;;;5.89;69.85;99744.63;5140949;27;55898;-80
2022/01/05 08:24:11;;;;;;;;;;;;;;;5.88;69.47;99766.03;5141052;27;54155;-80
2022/01/05 08:26:37;;;;;;;;;;;;;;;5.88;70.54;99756.63;5143432;27;27642;-80
2022/01/05 08:29:02;;;;;;;;;;;;;;;5.88;69.60;99761.75;5144019;27;26862;-81
2022/01/05 08:31:27;;;;;;;;;;;;;;;5.88;70.38;99771.16;5141800;27;26874;-80
2022/01/05 08:33:56;;;;;;;;;;;;;;;5.92;70.43;99762.53;5143129;27;26862;-82
2022/01/05 08:36:21;;;;;;;;;;;;;;;5.88;70.56;99766.03;5142463;27;27112;-82
2022/01/05 08:38:46;;;;;;;;;;;;;;;5.87;71.39;99761.78;5142019;27;29009;-81
2022/01/05 08:41:11;;;;;;;;;;;;;;;5.90;70.87;99769.38;5142697;27;26787;-82
2022/01/05 08:43:36;;;;;;;;;;;;;;;5.89;71.05;99775.38;5141726;27;35648;-82
2022/01/05 08:46:02;;;;;;;;;;;;;;;5.91;71.25;99776.22;5142085;27;26757;-81
2022/01/05 08:48:27;;;;;;;;;;;;;;;5.95;70.39;99788.91;5142054;27;26795;-81
2022/01/05 08:50:53;;;;;;;;;;;;;;;5.98;71.20;99786.28;5142707;27;27200;-82
2022/01/05 08:53:19;;;;;;;;;;;;;;;5.98;70.92;99782.88;5141858;27;26770;-82
2022/01/05 08:55:45;;;;;;;;;;;;;;;5.95;71.50;99788.06;5142680;27;27361;-82
2022/01/05 08:58:11;;;;;;;;;;;;;;;5.97;71.08;99786.31;5142791;27;26997;-82
2022/01/05 09:00:37;;;;;;;;;;;;;;;5.95;71.23;99778.66;5142009;27;26986;-82
2022/01/05 09:03:02;;;;;;;;;;;;;;;5.95;71.30;99782.94;5141910;27;27118;-82
2022/01/05 09:05:29;;;;;;;;;;;;;;;5.92;71.91;99780.47;5140478;27;27389;-80
2022/01/05 09:07:54;;;;;;;;;;;;;;;5.93;71.22;99797.50;5141560;27;26834;-80
2022/01/05 09:10:19;;;;;;;;;;;;;;;5.91;71.29;99786.47;5144085;27;56215;-83
2022/01/05 09:12:45;;;;;;;;;;;;;;;5.83;71.24;99784.88;5145257;27;49959;-83
2022/01/05 09:15:10;;;;;;;;;;;;;;;5.78;71.87;99796.94;5144901;27;28150;-83
2022/01/05 09:17:35;;;;;;;;;;;;;;;5.72;72.23;99802.19;5144746;27;26861;-83
2022/01/05 09:20:00;;;;;;;;;;;;;;;5.71;72.53;99805.63;5144557;27;26895;-82
2022/01/05 09:22:26;;;;;;;;;;;;;;;5.66;72.42;99799.75;5145324;27;26950;-82
2022/01/05 09:24:51;;;;;;;;;;;;;;;5.64;72.84;99811.75;5144167;27;26843;-83
2022/01/05 09:27:17;;;;;;;;;;;;;;;5.65;73.36;99810.91;5145289;27;26597;-83
2022/01/05 09:29:42;;;;;;;;;;;;;;;5.67;73.26;99804.00;5145621;27;26963;-82
2022/01/05 09:32:09;;;;;;;;;;;;;;;5.67;73.27;99814.25;5140381;27;26833;-83
2022/01/05 09:34:37;;;;;;;;;;;;;;;5.66;72.52;99807.44;5139949;27;27353;-83
2022/01/05 09:37:09;;;;;;;;;;;;;;;5.64;73.33;99816.88;5141244;27;27011;-83
2022/01/05 09:42:18;;;;;;;;;;;;;;;5.64;73.12;99821.16;5140805;27;26960;-83
2022/01/05 09:44:45;;;;;;;;;;;;;;;5.62;73.90;99813.53;5140515;27;27016;-83
2022/01/05 09:47:10;;;;;;;;;;;;;;;5.65;74.04;99810.91;5140752;27;26829;-83
2022/01/05 09:49:37;;;;;;;;;;;;;;;5.66;73.87;99812.56;5139997;27;55472;-83
2022/01/05 09:52:04;;;;;;;;;;;;;;;5.68;74.56;99815.09;5141194;27;26980;-82
2022/01/05 09:54:29;;;;;;;;;;;;;;;5.71;74.06;99828.69;5139316;27;26877;-80
2022/01/05 09:56:56;;;;;;;;;;;;;;;5.76;74.59;99834.56;5138290;27;26989;-81
2022/01/05 09:59:21;;;;;;;;;;;;;;;5.80;74.12;99831.06;5138087;27;26946;-80
2022/01/05 10:01:46;;;;;;;;;;;;;;;5.82;75.42;99829.31;5138824;27;26780;-81
2022/01/05 10:04:13;;;;;;;;;;;;;;;5.91;74.42;99833.44;5137405;27;56476;-80
2022/01/05 10:06:39;;;;;;;;;;;;;;;6.01;73.86;99831.50;5138431;27;26812;-80
2022/01/05 10:09:04;;;;;;;;;;;;;;;6.08;75.08;99835.59;5137538;27;48582;-80
2022/01/05 10:11:29;;;;;;;;;;;;;;;6.15;74.64;99826.91;5139397;27;26807;-80
2022/01/05 10:13:54;;;;;;;;;;;;;;;6.22;74.96;99838.72;5140105;27;27047;-81
2022/01/05 10:16:20;;;;;;;;;;;;;;;6.27;74.23;99845.41;5140636;27;53672;-81
2022/01/05 10:18:45;;;;;;;;;;;;;;;6.34;73.91;99848.69;5142317;27;41023;-82
2022/01/05 10:21:14;;;;;;;;;;;;;;;6.39;74.49;99853.69;5141741;27;26748;-82
2022/01/05 10:23:45;;;;;;;;;;;;;;;6.40;74.88;99857.97;5140419;27;27171;-82
2022/01/05 10:26:21;;;;;;;;;;;;;;;6.47;74.05;99862.91;5141557;27;26929;-82
2022/01/05 10:28:47;;;;;;;;;;;;;;;6.50;75.12;99873.09;5141887;27;26962;-81
2022/01/05 10:31:13;;;;;;;;;;;;;;;6.53;75.17;99870.44;5141219;27;27067;-82
2022/01/05 10:33:39;;;;;;;;;;;;;;;6.60;74.54;99884.81;5140513;27;27058;-81
2022/01/05 10:36:05;;;;;;;;;;;;;;;6.65;74.45;99885.56;5140746;27;26447;-80
2022/01/05 10:38:30;;;;;;;;;;;;;;;6.69;74.87;99894.88;5140083;27;57519;-80
2022/01/05 10:40:55;;;;;;;;;;;;;;;6.75;74.67;99887.03;5139034;27;27181;-81
2022/01/05 10:43:20;;;;;;;;;;;;;;;6.82;74.94;99888.56;5137838;27;26818;-81
2022/01/05 10:45:47;;;;;;;;;;;;;;;6.90;74.75;99890.13;5137273;27;37253;-81
2022/01/05 10:48:14;;;;;;;;;;;;;;;7.03;74.18;99901.75;5137223;27;26800;-81
2022/01/05 10:50:39;;;;;;;;;;;;;;;7.15;74.71;99896.31;5138157;27;26827;-81
2022/01/05 10:53:05;;;;;;;;;;;;;;;7.25;74.63;99898.59;5138586;27;26857;-81
2022/01/05 10:55:32;;;;;;;;;;;;;;;7.37;74.86;99912.84;5139074;27;27098;-81
2022/01/05 10:57:58;;;;;;;;;;;;;;;7.49;74.58;99917.66;5139388;27;27002;-81
2022/01/05 11:00:36;;;;;;;;;;;;;;;7.59;74.73;99913.97;5139932;27;26945;-81
2022/01/05 11:03:02;;;;;;;;;;;;;;;7.69;74.64;99923.09;5120559;27;30332;-82
2022/01/05 11:05:28;;;;;;;;;;;;;;;7.75;73.96;99930.66;5139129;27;26948;-80
2022/01/05 11:08:05;;;;;;;;;;;;;;;7.86;74.47;99947.50;5139153;27;27030;-80
2022/01/05 11:10:30;;;;;;;;;;;;;;;7.92;73.83;99942.19;5138056;27;26926;-80
2022/01/05 11:12:55;;;;;;;;;;;;;;;7.98;73.76;99948.00;5137802;27;56138;-79
2022/01/05 11:15:21;;;;;;;;;;;;;;;8.02;73.43;99939.28;5137395;27;54768;-80
2022/01/05 11:18:05;;;;;;;;;;;;;;;8.07;73.61;99952.03;5142156;27;27248;-80
2022/01/05 11:20:30;;;;;;;;;;;;;;;8.07;73.28;99947.72;5142739;27;27095;-81
2022/01/05 11:22:55;;;;;;;;;;;;;;;8.11;72.87;99940.78;5140288;27;27000;-80
2022/01/05 11:25:21;;;;;;;;;;;;;;;8.12;72.64;99947.59;5140929;27;27254;-80
2022/01/05 11:27:46;;;;;;;;;;;;;;;8.11;72.48;99954.47;5140169;27;27079;-80
2022/01/05 11:30:11;;;;;;;;;;;;;;;8.13;72.00;99949.31;5146370;27;48397;-78
2022/01/05 11:32:37;;;;;;;;;;;;;;;8.11;71.54;99953.63;5147175;27;27110;-78
2022/01/05 11:35:05;;;;;;;;;;;;;;;8.12;71.85;99963.03;5143682;27;27100;-78
2022/01/05 11:37:30;;;;;;;;;;;;;;;8.17;72.15;99974.88;5143188;27;26906;-79
2022/01/05 11:39:55;;;;;;;;;;;;;;;8.23;71.89;99979.00;5142897;27;53834;-79
2022/01/05 11:42:28;;;;;;;;;;;;;;;8.28;72.36;99977.16;5143760;27;27130;-78
2022/01/05 11:44:54;;;;;;;;;;;;;;;8.35;72.00;99983.84;5141147;27;26866;-79
2022/01/05 11:47:22;;;;;;;;;;;;;;;8.34;72.01;99989.88;5140692;27;27066;-79
2022/01/05 11:49:47;;;;;;;;;;;;;;;8.41;72.07;99993.94;5141476;27;26872;-80
2022/01/05 11:52:12;;;;;;;;;;;;;;;8.43;71.59;99997.34;5121672;27;45754;-79
2022/01/05 11:54:37;;;;;;;;;;;;;;;8.44;71.47;99999.00;5141884;27;26461;-80
2022/01/05 11:57:08;;;;;;;;;;;;;;;8.45;71.84;99995.53;5141588;27;27170;-80
2022/01/05 11:59:35;;;;;;;;;;;;;;;8.48;71.54;100005.75;5143145;27;26951;-79
2022/01/05 12:02:00;;;;;;;;;;;;;;;8.53;72.01;100008.19;5141227;27;27071;-80
2022/01/05 12:04:25;;;;;;;;;;;;;;;8.53;71.56;100014.19;5141716;27;26624;-80
2022/01/05 12:06:50;;;;;;;;;;;;;;;8.56;71.67;100019.22;5142977;27;26903;-79
2022/01/05 12:09:20;;;;;;;;;;;;;;;8.58;71.75;100014.91;5141622;27;48176;-80
2022/01/05 12:11:45;;;;;;;;;;;;;;;8.67;71.61;100024.91;5142271;27;26924;-80
2022/01/05 12:14:19;;;;;;;;;;;;;;;8.70;71.85;100009.34;5142780;27;26936;-80
2022/01/05 12:17:06;;;;;;;;;;;;;;;8.79;71.59;100017.69;5143875;27;26922;-80
2022/01/05 12:19:33;;;;;;;;;;;;;;;8.90;71.15;100023.38;5144443;27;26815;-80
2022/01/05 12:21:59;;;;;;;;;;;;;;;8.94;70.76;100030.09;5143889;27;27019;-79
2022/01/05 12:24:44;;;;;;;;;;;;;;;8.99;70.54;100034.25;5144261;27;27053;-80
2022/01/05 12:27:16;;;;;;;;;;;;;;;9.00;70.23;100040.22;5143148;27;27550;-80
2022/01/05 12:29:43;;;;;;;;;;;;;;;9.00;70.03;100040.22;5143187;27;26920;-80
2022/01/05 12:32:08;;;;;;;;;;;;;;;8.92;69.79;100043.06;5143649;27;27495;-80
2022/01/05 12:34:48;;;;;;;;;;;;;;;8.87;70.17;100050.06;5143978;27;26774;-80
2022/01/05 12:37:32;;;;;;;;;;;;;;;8.78;69.95;100044.31;5143297;27;27634;-80
2022/01/05 12:39:59;;;;;;;;;;;;;;;8.64;70.27;100032.72;5142283;27;26953;-81
2022/01/05 12:42:24;;;;;;;;;;;;;;;8.60;70.23;100031.13;5140820;27;26839;-81
2022/01/05 12:44:49;;;;;;;;;;;;;;;8.56;70.53;100024.38;5140052;27;53049;-81
2022/01/05 12:47:16;;;;;;;;;;;;;;;8.57;70.74;100051.81;5144366;27;26910;-81
2022/01/05 12:49:42;;;;;;;;;;;;;;;8.59;71.15;100059.47;5142481;27;27006;-82
2022/01/05 12:52:08;;;;;;;;;;;;;;;8.61;71.17;100043.13;5142232;27;27302;-82
2022/01/05 12:54:41;;;;;;;;;;;;;;;8.61;71.30;100058.56;5145819;27;26675;-80